GEL905 LROP-LROP
Flight info
| Callsign | GEL905 |
|---|---|
| Flight time | 0h 8m |
| Altitude | 32000 |
| Route | SOKRU1K/08L SOKRU DCT TOSVI |
| Aircraft | B742/H-SDFHIRWXY/L |
Departure
| Time | 2026-05-07 17:54 |
|---|---|
| Airport | Bucharest Henri Coandă International Airport (LROP) |
Arrival
| Time | 2026-05-07 18:02 |
|---|---|
| Airport | Bucharest Henri Coandă International Airport (LROP) |
| Time | Latitude | Longitude | Altitude | Speed | Heading |
|---|---|---|---|---|---|
| 2026-05-07 17:54 | 44.71711 | 26.06024 | 3420 ft | 248 kts | 259° |
| 2026-05-07 17:54 | 44.71421 | 26.03741 | 3491 ft | 229 kts | 259° |
| 2026-05-07 17:54 | 44.71154 | 26.01499 | 3954 ft | 231 kts | 260° |
| 2026-05-07 17:55 | 44.70882 | 25.99153 | 4294 ft | 245 kts | 260° |
| 2026-05-07 17:55 | 44.70595 | 25.96854 | 4342 ft | 223 kts | 259° |
| 2026-05-07 17:55 | 44.70338 | 25.94808 | 4269 ft | 194 kts | 260° |
| 2026-05-07 17:55 | 44.70089 | 25.92967 | 3988 ft | 194 kts | 257° |
| 2026-05-07 17:56 | 44.69843 | 25.91086 | 3894 ft | 189 kts | 262° |
| 2026-05-07 17:56 | 44.69710 | 25.89185 | 4005 ft | 195 kts | 266° |
| 2026-05-07 17:56 | 44.69546 | 25.87272 | 4170 ft | 191 kts | 250° |
| 2026-05-07 17:56 | 44.68716 | 25.85800 | 4181 ft | 204 kts | 205° |
| 2026-05-07 17:57 | 44.67326 | 25.85632 | 3673 ft | 199 kts | 160° |
| 2026-05-07 17:57 | 44.66216 | 25.86685 | 3375 ft | 182 kts | 140° |
| 2026-05-07 17:57 | 44.65264 | 25.87748 | 3125 ft | 165 kts | 141° |
| 2026-05-07 17:57 | 44.64375 | 25.88707 | 2794 ft | 155 kts | 142° |
| 2026-05-07 17:58 | 44.63525 | 25.89624 | 2452 ft | 151 kts | 141° |
| 2026-05-07 17:58 | 44.62691 | 25.90526 | 2238 ft | 146 kts | 142° |
| 2026-05-07 17:58 | 44.61838 | 25.91380 | 2230 ft | 150 kts | 144° |
| 2026-05-07 17:58 | 44.60950 | 25.92213 | 2236 ft | 153 kts | 146° |
| 2026-05-07 17:59 | 44.60043 | 25.93005 | 2218 ft | 152 kts | 148° |
| 2026-05-07 17:59 | 44.59100 | 25.93764 | 2141 ft | 154 kts | 150° |
| 2026-05-07 17:59 | 44.58161 | 25.94497 | 2090 ft | 153 kts | 148° |
| 2026-05-07 17:59 | 44.57272 | 25.95375 | 2072 ft | 152 kts | 137° |
| 2026-05-07 18:00 | 44.56627 | 25.96569 | 1948 ft | 154 kts | 104° |
| 2026-05-07 18:00 | 44.56702 | 25.98077 | 1606 ft | 154 kts | 73° |
| 2026-05-07 18:00 | 44.56990 | 25.99509 | 1274 ft | 148 kts | 77° |
| 2026-05-07 18:00 | 44.57124 | 26.00964 | 1109 ft | 149 kts | 85° |
| 2026-05-07 18:01 | 44.57196 | 26.02421 | 998 ft | 148 kts | 84° |
| 2026-05-07 18:01 | 44.57315 | 26.03890 | 889 ft | 149 kts | 81° |
| 2026-05-07 18:01 | 44.57438 | 26.05342 | 737 ft | 149 kts | 85° |
| 2026-05-07 18:01 | 44.57529 | 26.06803 | 592 ft | 148 kts | 83° |
| 2026-05-07 18:02 | 44.57760 | 26.09715 | 320 ft | 136 kts | 83° |
| 2026-05-07 18:02 | 44.57841 | 26.10782 | 313 ft | 76 kts | 84° |
| 2026-05-07 18:02 | 44.57882 | 26.11311 | 309 ft | 46 kts | 84° |
| 2026-05-07 18:03 | 44.57915 | 26.11746 | 309 ft | 42 kts | 84° |
| 2026-05-07 18:03 | 44.57946 | 26.12149 | 309 ft | 39 kts | 84° |
| 2026-05-07 18:03 | 44.57971 | 26.12481 | 309 ft | 20 kts | 84° |
| 2026-05-07 18:03 | 44.57986 | 26.12665 | 309 ft | 14 kts | 83° |
| 2026-05-07 18:04 | 44.57948 | 26.12784 | 307 ft | 13 kts | 141° |
| 2026-05-07 18:04 | 44.57867 | 26.12829 | 306 ft | 10 kts | 184° |
| 2026-05-07 18:04 | 44.57829 | 26.12789 | 307 ft | 4 kts | 242° |
| 2026-05-07 18:04 | 44.57817 | 26.12725 | 308 ft | 11 kts | 260° |
| 2026-05-07 18:05 | 44.57802 | 26.12553 | 309 ft | 22 kts | 264° |
| 2026-05-07 18:05 | 44.57786 | 26.12331 | 309 ft | 23 kts | 263° |
| 2026-05-07 18:05 | 44.57767 | 26.12098 | 309 ft | 24 kts | 263° |
| 2026-05-07 18:05 | 44.57748 | 26.11856 | 309 ft | 24 kts | 264° |
| 2026-05-07 18:06 | 44.57729 | 26.11610 | 309 ft | 25 kts | 263° |
| 2026-05-07 18:06 | 44.57711 | 26.11355 | 309 ft | 26 kts | 264° |
| 2026-05-07 18:06 | 44.57692 | 26.11087 | 309 ft | 27 kts | 263° |
| 2026-05-07 18:06 | 44.57670 | 26.10825 | 312 ft | 26 kts | 264° |
| 2026-05-07 18:07 | 44.57651 | 26.10559 | 314 ft | 26 kts | 264° |
| 2026-05-07 18:07 | 44.57631 | 26.10302 | 316 ft | 23 kts | 264° |
| 2026-05-07 18:07 | 44.57615 | 26.10094 | 318 ft | 16 kts | 264° |
| 2026-05-07 18:07 | 44.57604 | 26.09934 | 319 ft | 16 kts | 265° |
| 2026-05-07 18:08 | 44.57533 | 26.09835 | 319 ft | 16 kts | 182° |
| 2026-05-07 18:08 | 44.57407 | 26.09851 | 317 ft | 19 kts | 173° |
| 2026-05-07 18:08 | 44.57258 | 26.09872 | 315 ft | 20 kts | 173° |
| 2026-05-07 18:08 | 44.57147 | 26.09890 | 313 ft | 12 kts | 174° |
| 2026-05-07 18:09 | 44.57064 | 26.09902 | 312 ft | 8 kts | 174° |
| 2026-05-07 18:09 | 44.57018 | 26.09876 | 312 ft | 5 kts | 248° |
| 2026-05-07 18:09 | 44.57001 | 26.09837 | 312 ft | 4 kts | 205° |
| 2026-05-07 18:09 | 44.56963 | 26.09832 | 312 ft | 4 kts | 168° |
| 2026-05-07 18:10 | 44.56949 | 26.09835 | 311 ft | 0 kts | 173° |